createdAt,value
2018-08-13T00:01:28.918Z,24.59
2018-08-13T00:03:57.316Z,24.59
2018-08-13T00:06:25.478Z,24.61
2018-08-13T00:08:53.604Z,24.61
2018-08-13T00:11:21.804Z,24.62
2018-08-13T00:13:50.046Z,24.62
2018-08-13T00:16:18.299Z,24.61
2018-08-13T00:18:46.476Z,24.61
2018-08-13T00:21:14.587Z,24.62
2018-08-13T00:23:42.738Z,24.61
2018-08-13T00:26:11.088Z,24.59
2018-08-13T00:28:39.280Z,24.58
2018-08-13T00:31:07.544Z,24.57
2018-08-13T00:33:35.683Z,24.57
2018-08-13T00:36:03.824Z,24.57
2018-08-13T00:38:32.078Z,24.57
2018-08-13T00:41:00.306Z,24.56
2018-08-13T00:43:28.398Z,24.54
2018-08-13T00:45:56.614Z,24.54
2018-08-13T00:48:24.724Z,24.53
2018-08-13T00:50:52.888Z,24.53
2018-08-13T00:53:21.421Z,24.52
2018-08-13T00:55:49.588Z,24.53
2018-08-13T00:58:17.894Z,24.54
2018-08-13T01:00:46.022Z,24.53
2018-08-13T01:03:14.211Z,24.53
2018-08-13T01:05:42.342Z,24.52
2018-08-13T01:08:10.592Z,24.52
2018-08-13T01:10:38.830Z,24.52
2018-08-13T01:13:07.163Z,24.52
2018-08-13T01:15:35.362Z,24.52
2018-08-13T01:18:03.495Z,24.50
2018-08-13T01:20:31.630Z,24.50
2018-08-13T01:22:59.801Z,24.51
2018-08-13T01:25:27.951Z,24.51
2018-08-13T01:27:56.060Z,24.51
2018-08-13T01:30:24.242Z,24.51
2018-08-13T01:32:52.358Z,24.50
2018-08-13T01:35:20.440Z,24.49
2018-08-13T01:37:48.609Z,24.49
2018-08-13T01:40:16.922Z,24.49
2018-08-13T01:42:45.149Z,24.48
2018-08-13T01:45:13.380Z,24.47
2018-08-13T01:47:42.057Z,24.46
2018-08-13T01:50:11.499Z,24.46
2018-08-13T01:52:39.642Z,24.45
2018-08-13T01:55:08.851Z,24.44
2018-08-13T01:57:36.942Z,24.45
2018-08-13T02:00:07.907Z,24.46
2018-08-13T02:02:36.054Z,24.45
2018-08-13T02:05:04.590Z,24.45
2018-08-13T02:07:32.665Z,24.44
2018-08-13T02:10:00.802Z,24.42
2018-08-13T02:12:29.015Z,24.43
2018-08-13T02:14:57.120Z,24.42
2018-08-13T02:17:25.298Z,24.43
2018-08-13T02:19:53.483Z,24.43
2018-08-13T02:22:21.771Z,24.42
2018-08-13T02:24:49.870Z,24.43
2018-08-13T02:27:17.960Z,24.41
2018-08-13T02:29:46.231Z,24.40
2018-08-13T02:32:14.390Z,24.40
2018-08-13T02:34:42.535Z,24.39
2018-08-13T02:37:10.659Z,24.39
2018-08-13T02:39:38.788Z,24.39
2018-08-13T02:42:06.875Z,24.39
2018-08-13T02:44:34.987Z,24.40
2018-08-13T02:47:03.196Z,24.36
2018-08-13T02:49:31.268Z,24.35
2018-08-13T02:51:59.513Z,24.34
2018-08-13T02:54:27.635Z,24.35
2018-08-13T02:56:55.824Z,24.34
2018-08-13T02:59:24.206Z,24.34
2018-08-13T03:01:52.315Z,24.33
2018-08-13T03:04:20.427Z,24.34
2018-08-13T03:06:48.499Z,24.35
2018-08-13T03:09:16.588Z,24.35
2018-08-13T03:11:45.133Z,24.35
2018-08-13T03:14:13.301Z,24.35
2018-08-13T03:16:41.422Z,24.34
2018-08-13T03:19:09.519Z,24.34
2018-08-13T03:21:37.616Z,24.33
2018-08-13T03:24:05.878Z,24.34
2018-08-13T03:26:33.997Z,24.33
2018-08-13T03:29:02.111Z,24.33
2018-08-13T03:31:30.227Z,24.28
2018-08-13T03:33:58.398Z,24.21
2018-08-13T03:36:26.660Z,24.21
2018-08-13T03:38:54.770Z,24.20
2018-08-13T03:41:22.871Z,24.19
2018-08-13T03:43:51.335Z,24.17
2018-08-13T03:46:19.458Z,24.17
2018-08-13T03:48:47.686Z,24.18
2018-08-13T03:51:15.799Z,24.19
2018-08-13T03:53:43.953Z,24.18
2018-08-13T03:56:12.334Z,24.20
2018-08-13T03:58:40.401Z,24.21
2018-08-13T04:01:08.767Z,24.21
2018-08-13T04:03:36.866Z,24.21
2018-08-13T04:06:05.074Z,24.21
2018-08-13T04:08:33.211Z,24.20
2018-08-13T04:11:01.323Z,24.20
2018-08-13T04:13:29.529Z,24.21
2018-08-13T04:15:57.607Z,24.19
2018-08-13T04:18:25.706Z,24.19
2018-08-13T04:20:53.813Z,24.19
2018-08-13T04:23:21.974Z,24.19
2018-08-13T04:25:50.245Z,24.20
2018-08-13T04:28:18.439Z,24.19
2018-08-13T04:30:46.526Z,24.20
2018-08-13T04:33:14.715Z,24.20
2018-08-13T04:35:43.147Z,24.20
2018-08-13T04:38:11.675Z,24.19
2018-08-13T04:40:39.770Z,24.20
2018-08-13T04:43:08.099Z,24.20
2018-08-13T04:45:36.235Z,24.20
2018-08-13T04:48:04.399Z,24.20
2018-08-13T04:50:32.570Z,24.21
2018-08-13T04:53:00.702Z,24.22
2018-08-13T04:55:28.991Z,24.22
2018-08-13T04:57:57.154Z,24.22
2018-08-13T05:00:25.275Z,24.22
2018-08-13T05:02:53.590Z,24.22
2018-08-13T05:05:21.670Z,24.23
2018-08-13T05:07:49.899Z,24.23
2018-08-13T05:10:18.150Z,24.24
2018-08-13T05:12:46.360Z,24.24
2018-08-13T05:15:14.623Z,24.24
2018-08-13T05:17:42.876Z,24.23
2018-08-13T05:20:11.054Z,24.24
2018-08-13T05:22:39.198Z,24.24
2018-08-13T05:25:08.463Z,24.21
2018-08-13T05:27:36.737Z,24.13
2018-08-13T05:30:06.375Z,24.07
2018-08-13T05:32:35.082Z,24.02
2018-08-13T05:35:03.331Z,24.00
2018-08-13T05:37:31.576Z,23.99
2018-08-13T05:39:59.863Z,23.99
2018-08-13T05:42:28.083Z,24.01
2018-08-13T05:44:56.886Z,24.04
2018-08-13T05:47:25.015Z,24.06
2018-08-13T05:49:53.295Z,24.08
2018-08-13T05:52:21.523Z,24.09
2018-08-13T05:54:49.728Z,24.11
2018-08-13T05:57:17.975Z,24.15
2018-08-13T05:59:46.089Z,24.17
2018-08-13T06:02:14.323Z,24.16
2018-08-13T06:04:42.591Z,24.19
2018-08-13T06:07:10.678Z,24.24
2018-08-13T06:09:38.890Z,24.14
2018-08-13T06:12:07.025Z,24.11
2018-08-13T06:14:35.207Z,24.09
2018-08-13T06:17:03.323Z,24.10
2018-08-13T06:19:31.403Z,24.13
2018-08-13T06:21:59.650Z,24.16
2018-08-13T06:24:27.811Z,24.20
2018-08-13T06:26:55.966Z,24.24
2018-08-13T06:29:24.058Z,24.26
2018-08-13T06:31:52.195Z,24.28
2018-08-13T06:34:20.438Z,24.29
2018-08-13T06:36:48.519Z,24.33
2018-08-13T06:39:16.825Z,24.39
2018-08-13T06:41:44.986Z,24.44
2018-08-13T06:44:13.123Z,24.50
2018-08-13T06:46:41.323Z,24.58
2018-08-13T06:49:09.415Z,24.60
2018-08-13T06:51:37.536Z,24.57
2018-08-13T06:54:05.751Z,24.59
2018-08-13T06:56:33.863Z,24.63
2018-08-13T06:59:01.979Z,24.65
2018-08-13T07:01:30.239Z,24.65
2018-08-13T07:03:58.463Z,24.65
2018-08-13T07:06:26.573Z,24.66
2018-08-13T07:08:54.679Z,24.65
2018-08-13T07:11:22.904Z,24.66
2018-08-13T07:13:50.989Z,24.69
2018-08-13T07:16:19.364Z,24.70
2018-08-13T07:18:47.444Z,24.70
2018-08-13T07:21:15.529Z,24.70
2018-08-13T07:23:43.902Z,24.72
2018-08-13T07:26:12.013Z,24.73
2018-08-13T07:28:40.286Z,24.73
2018-08-13T07:31:08.391Z,24.74
2018-08-13T07:33:36.705Z,24.74
2018-08-13T07:36:04.755Z,24.75
2018-08-13T07:38:32.849Z,24.74
2018-08-13T07:41:01.177Z,24.75
2018-08-13T07:43:29.274Z,24.76
2018-08-13T07:45:57.358Z,24.76
2018-08-13T07:48:25.623Z,24.75
2018-08-13T07:50:53.711Z,24.73
2018-08-13T07:53:21.935Z,24.73
2018-08-13T07:55:50.011Z,24.73
2018-08-13T07:58:18.089Z,24.76
2018-08-13T08:00:46.359Z,24.75
2018-08-13T08:03:14.567Z,24.74
2018-08-13T08:05:42.775Z,24.74
2018-08-13T08:08:10.952Z,24.74
2018-08-13T08:10:39.278Z,24.74
2018-08-13T08:13:08.012Z,24.75
2018-08-13T08:15:36.093Z,24.77
2018-08-13T08:18:04.877Z,24.77
2018-08-13T08:20:32.979Z,24.79
2018-08-13T08:23:01.104Z,24.80
2018-08-13T08:25:29.222Z,24.80
2018-08-13T08:27:57.398Z,24.81
2018-08-13T08:30:25.538Z,24.80
2018-08-13T08:32:53.634Z,24.76
2018-08-13T08:35:21.835Z,24.77
2018-08-13T08:37:49.944Z,24.77
2018-08-13T08:40:19.857Z,24.78
2018-08-13T08:42:48.538Z,24.78
2018-08-13T08:45:19.679Z,24.81
2018-08-13T08:47:48.058Z,24.82
2018-08-13T08:50:16.644Z,24.83
2018-08-13T08:52:45.529Z,24.84
2018-08-13T08:55:13.656Z,24.86
2018-08-13T08:57:41.811Z,24.88
2018-08-13T09:00:14.743Z,24.89
2018-08-13T09:02:42.831Z,24.90
2018-08-13T09:05:11.003Z,24.85
2018-08-13T09:07:39.430Z,24.84
2018-08-13T09:10:08.260Z,24.80
2018-08-13T09:12:36.622Z,24.76
2018-08-13T09:15:05.236Z,24.74
2018-08-13T09:17:44.730Z,24.76
2018-08-13T09:21:25.055Z,24.82
2018-08-13T09:24:04.524Z,24.85
2018-08-13T09:26:44.201Z,24.86
2018-08-13T09:29:23.591Z,24.76
2018-08-13T09:32:30.449Z,24.68
2018-08-13T09:35:37.042Z,24.64
2018-08-13T09:38:05.722Z,24.63
2018-08-13T09:40:34.239Z,24.63
2018-08-13T09:43:02.486Z,24.59
2018-08-13T09:45:30.632Z,24.59
2018-08-13T09:47:58.862Z,24.59
2018-08-13T09:50:27.114Z,24.56
2018-08-13T09:52:55.310Z,24.55
2018-08-13T09:55:23.554Z,24.54
2018-08-13T09:57:52.047Z,24.56
2018-08-13T10:00:26.397Z,24.59
2018-08-13T10:02:54.563Z,24.61
2018-08-13T10:05:22.835Z,24.61
2018-08-13T10:07:50.991Z,24.64
2018-08-13T10:10:19.108Z,24.59
2018-08-13T10:12:48.566Z,24.63
2018-08-13T10:15:16.760Z,24.64
2018-08-13T10:17:44.947Z,24.62
2018-08-13T10:20:16.571Z,24.63
2018-08-13T10:22:44.822Z,24.68
2018-08-13T10:25:13.527Z,24.67
2018-08-13T10:27:42.091Z,24.64
2018-08-13T10:30:11.784Z,24.62
2018-08-13T10:32:40.600Z,24.59
2018-08-13T10:35:08.969Z,24.56
2018-08-13T10:37:37.580Z,24.55
2018-08-13T10:40:08.198Z,24.55
2018-08-13T10:42:36.535Z,24.50
2018-08-13T10:45:05.403Z,24.48
2018-08-13T10:47:33.717Z,24.46
2018-08-13T10:50:01.800Z,24.51
2018-08-13T10:52:29.899Z,24.58
2018-08-13T10:54:58.049Z,24.65
2018-08-13T10:57:26.388Z,24.69
2018-08-13T10:59:54.639Z,24.72
2018-08-13T11:02:22.750Z,24.73
2018-08-13T11:04:50.859Z,24.78
2018-08-13T11:07:19.020Z,24.77
2018-08-13T11:09:47.103Z,24.77
2018-08-13T11:12:15.350Z,24.78
2018-08-13T11:14:43.547Z,24.81
2018-08-13T11:17:11.732Z,24.82
2018-08-13T11:19:39.864Z,24.83
2018-08-13T11:22:07.935Z,24.86
2018-08-13T11:24:36.159Z,24.85
2018-08-13T11:27:04.387Z,24.87
2018-08-13T11:29:32.542Z,24.87
2018-08-13T11:32:00.687Z,24.88
2018-08-13T11:34:28.811Z,24.88
2018-08-13T11:36:57.723Z,24.89
2018-08-13T11:39:25.797Z,24.90
2018-08-13T11:41:54.053Z,24.90
2018-08-13T11:44:22.151Z,24.92
2018-08-13T11:46:50.283Z,24.95
2018-08-13T11:49:18.376Z,24.95
2018-08-13T11:51:46.485Z,24.95
2018-08-13T11:54:14.884Z,24.96
2018-08-13T11:56:43.018Z,24.97
2018-08-13T11:59:11.123Z,24.96
2018-08-13T12:01:39.215Z,25.02
2018-08-13T12:04:07.313Z,25.03
2018-08-13T12:06:35.422Z,25.04
2018-08-13T12:09:05.122Z,25.03
2018-08-13T12:11:33.250Z,25.04
2018-08-13T12:14:01.501Z,25.04
2018-08-13T12:16:29.600Z,25.06
2018-08-13T12:18:57.723Z,25.03
2018-08-13T12:21:25.795Z,25.05
2018-08-13T12:23:53.878Z,25.09
2018-08-13T12:26:22.102Z,25.10
2018-08-13T12:28:50.169Z,25.13
2018-08-13T12:31:18.239Z,25.14
2018-08-13T12:33:46.343Z,25.14
2018-08-13T12:36:14.431Z,25.13
2018-08-13T12:38:42.563Z,25.11
2018-08-13T12:41:10.699Z,25.14
2018-08-13T12:43:38.815Z,25.20
2018-08-13T12:46:07.292Z,25.27
2018-08-13T12:48:35.544Z,25.37
2018-08-13T12:51:03.764Z,25.44
2018-08-13T12:53:31.968Z,25.46
2018-08-13T12:56:00.068Z,25.52
2018-08-13T12:58:28.355Z,25.61
2018-08-13T13:00:59.595Z,25.66
2018-08-13T13:03:28.284Z,25.68
2018-08-13T13:05:56.395Z,25.73
2018-08-13T13:08:24.494Z,25.72
2018-08-13T13:10:52.667Z,25.74
2018-08-13T13:13:20.875Z,25.78
2018-08-13T13:15:48.991Z,25.80
2018-08-13T13:18:17.248Z,25.77
2018-08-13T13:20:45.568Z,25.73
2018-08-13T13:23:14.150Z,25.72
2018-08-13T13:25:42.311Z,25.71
2018-08-13T13:28:10.484Z,25.74
2018-08-13T13:30:38.658Z,25.75
2018-08-13T13:33:06.912Z,25.78
2018-08-13T13:35:34.987Z,25.78
2018-08-13T13:38:03.251Z,25.81
2018-08-13T13:40:31.426Z,25.79
2018-08-13T13:42:59.659Z,25.80
2018-08-13T13:45:27.902Z,25.79
2018-08-13T13:47:56.039Z,25.77
2018-08-13T13:50:24.227Z,25.76
2018-08-13T13:52:52.471Z,25.76
2018-08-13T13:55:20.708Z,25.76
2018-08-13T13:57:48.824Z,25.74
2018-08-13T14:00:21.088Z,25.75
2018-08-13T14:02:50.336Z,25.73
2018-08-13T14:05:18.570Z,25.70
2018-08-13T14:07:46.883Z,25.69
2018-08-13T14:10:18.671Z,25.69
2018-08-13T14:12:47.018Z,25.71
2018-08-13T14:15:17.494Z,25.72
2018-08-13T14:17:45.657Z,25.70
2018-08-13T14:20:13.745Z,25.69
2018-08-13T14:22:43.366Z,25.66
2018-08-13T14:25:12.913Z,25.66
2018-08-13T14:27:41.417Z,25.65
2018-08-13T14:30:17.282Z,25.64
2018-08-13T14:32:45.867Z,25.64
2018-08-13T14:35:13.994Z,25.63
2018-08-13T14:37:42.247Z,25.62
2018-08-13T14:40:11.564Z,25.60
2018-08-13T14:42:39.660Z,25.60
2018-08-13T14:45:09.581Z,25.60
2018-08-13T14:47:37.818Z,25.61
2018-08-13T14:50:07.213Z,25.63
2018-08-13T14:52:35.314Z,25.66
2018-08-13T14:55:03.523Z,25.68
2018-08-13T14:57:31.660Z,25.72
2018-08-13T14:59:59.771Z,25.76
2018-08-13T15:02:27.930Z,25.77
2018-08-13T15:04:56.043Z,25.81
2018-08-13T15:07:24.230Z,25.81
2018-08-13T15:09:52.321Z,25.82
2018-08-13T15:12:20.812Z,25.82
2018-08-13T15:14:48.910Z,25.84
2018-08-13T15:17:17.005Z,25.84
2018-08-13T15:19:45.192Z,25.84
2018-08-13T15:22:13.281Z,25.85
2018-08-13T15:24:41.506Z,25.85
2018-08-13T15:27:09.658Z,25.87
2018-08-13T15:29:37.747Z,25.87
2018-08-13T15:32:06.047Z,25.87
2018-08-13T15:34:34.171Z,25.88
2018-08-13T15:37:02.329Z,25.90
2018-08-13T15:39:30.455Z,25.92
2018-08-13T15:41:58.833Z,25.92
2018-08-13T15:44:27.626Z,25.90
2018-08-13T15:46:55.818Z,25.89
2018-08-13T15:49:23.983Z,25.93
2018-08-13T15:51:52.476Z,25.92
2018-08-13T15:54:20.792Z,25.91
2018-08-13T15:56:48.918Z,25.91
2018-08-13T15:59:17.134Z,25.92
2018-08-13T16:01:45.268Z,25.93
2018-08-13T16:04:13.846Z,25.93
2018-08-13T16:06:42.029Z,25.92
2018-08-13T16:09:10.208Z,25.91
2018-08-13T16:11:38.847Z,25.91
2018-08-13T16:14:06.963Z,25.92
2018-08-13T16:16:35.194Z,25.92
2018-08-13T16:19:03.428Z,25.93
2018-08-13T16:21:31.622Z,25.94
2018-08-13T16:23:59.776Z,25.95
2018-08-13T16:26:27.999Z,25.97
2018-08-13T16:28:56.145Z,25.95
2018-08-13T16:31:24.733Z,25.94
2018-08-13T16:33:52.804Z,25.94
2018-08-13T16:36:21.484Z,25.95
2018-08-13T16:38:49.720Z,25.94
2018-08-13T16:41:17.870Z,25.94
2018-08-13T16:43:46.011Z,25.92
2018-08-13T16:46:14.226Z,25.98
2018-08-13T16:48:42.411Z,26.00
2018-08-13T16:51:10.531Z,26.02
2018-08-13T16:53:38.639Z,26.07
2018-08-13T16:56:06.743Z,26.10
2018-08-13T16:58:34.818Z,26.08
2018-08-13T17:01:02.982Z,26.12
2018-08-13T17:03:31.377Z,26.11
2018-08-13T17:05:59.590Z,26.12
2018-08-13T17:08:27.817Z,26.12
2018-08-13T17:10:55.901Z,26.17
2018-08-13T17:13:24.039Z,26.20
2018-08-13T17:15:52.172Z,26.19
2018-08-13T17:18:20.280Z,26.21
2018-08-13T17:20:48.794Z,26.19
2018-08-13T17:23:17.143Z,26.26
2018-08-13T17:25:45.311Z,26.32
2018-08-13T17:28:13.565Z,26.36
2018-08-13T17:30:41.555Z,26.33
2018-08-13T17:33:10.039Z,26.31
2018-08-13T17:35:38.503Z,26.24
2018-08-13T17:38:08.534Z,26.20
2018-08-13T17:40:36.740Z,26.15
2018-08-13T17:43:05.939Z,26.20
2018-08-13T17:45:34.047Z,26.15
2018-08-13T17:48:02.222Z,26.12
2018-08-13T17:50:30.449Z,26.07
2018-08-13T17:52:58.523Z,26.01
2018-08-13T17:55:27.246Z,25.96
2018-08-13T17:57:55.323Z,25.87
2018-08-13T18:00:25.807Z,25.88
2018-08-13T18:02:54.015Z,25.86
2018-08-13T18:05:25.338Z,25.76
2018-08-13T18:07:54.269Z,25.68
2018-08-13T18:10:27.040Z,25.70
2018-08-13T18:12:55.936Z,25.66
2018-08-13T18:15:24.031Z,25.67
2018-08-13T18:17:52.183Z,25.70
2018-08-13T18:20:20.325Z,25.74
2018-08-13T18:22:48.547Z,25.72
2018-08-13T18:25:17.099Z,25.69
2018-08-13T18:27:46.753Z,25.65
2018-08-13T18:30:20.279Z,25.54
2018-08-13T18:32:48.647Z,25.60
2018-08-13T18:35:17.066Z,25.62
2018-08-13T18:37:45.392Z,25.67
2018-08-13T18:40:17.279Z,25.69
2018-08-13T18:42:45.407Z,25.75
2018-08-13T18:45:13.656Z,25.79
2018-08-13T18:47:41.786Z,25.75
2018-08-13T18:50:13.411Z,25.74
2018-08-13T18:52:42.052Z,25.74
2018-08-13T18:55:11.024Z,25.79
2018-08-13T18:57:39.157Z,25.87
2018-08-13T19:00:09.701Z,25.85
2018-08-13T19:02:38.303Z,25.80
2018-08-13T19:05:06.910Z,25.81
2018-08-13T19:07:35.083Z,25.79
2018-08-13T19:10:03.302Z,25.85
2018-08-13T19:12:31.436Z,25.85
2018-08-13T19:14:59.638Z,25.86
2018-08-13T19:17:27.891Z,25.92
2018-08-13T19:19:56.028Z,25.89
2018-08-13T19:22:25.828Z,25.81
2018-08-13T19:24:54.224Z,25.70
2018-08-13T19:27:22.445Z,25.64
2018-08-13T19:29:50.592Z,25.61
2018-08-13T19:32:18.756Z,25.57
2018-08-13T19:34:47.435Z,25.54
2018-08-13T19:37:15.644Z,25.53
2018-08-13T19:39:43.792Z,25.64
2018-08-13T19:42:12.235Z,25.62
2018-08-13T19:44:40.498Z,25.59
2018-08-13T19:47:09.228Z,25.63
2018-08-13T19:49:37.407Z,25.65
2018-08-13T19:52:06.377Z,25.77
2018-08-13T19:54:34.757Z,25.86
2018-08-13T19:57:02.956Z,25.87
2018-08-13T19:59:31.063Z,25.94
2018-08-13T20:01:59.240Z,25.99
2018-08-13T20:04:27.359Z,26.02
2018-08-13T20:06:55.541Z,26.04
2018-08-13T20:09:23.639Z,26.07
2018-08-13T20:11:54.372Z,26.08
2018-08-13T20:14:23.806Z,26.12
2018-08-13T20:16:52.385Z,26.12
2018-08-13T20:19:20.787Z,26.13
2018-08-13T20:21:49.242Z,26.11
2018-08-13T20:24:17.385Z,26.09
2018-08-13T20:26:45.499Z,26.08
2018-08-13T20:29:13.601Z,26.07
2018-08-13T20:31:42.479Z,26.05
2018-08-13T20:34:10.566Z,26.05
2018-08-13T20:36:39.611Z,26.04
2018-08-13T20:39:12.872Z,26.03
2018-08-13T20:41:41.151Z,26.05
2018-08-13T20:44:09.836Z,26.05
2018-08-13T20:46:38.211Z,26.05
2018-08-13T20:49:06.903Z,26.02
2018-08-13T20:51:35.518Z,26.02
2018-08-13T20:54:03.960Z,25.99
2018-08-13T20:56:32.070Z,25.98
2018-08-13T20:59:00.212Z,25.95
2018-08-13T21:01:28.417Z,25.93
2018-08-13T21:03:56.739Z,25.88
2018-08-13T21:06:24.852Z,25.86
2018-08-13T21:08:52.950Z,25.81
2018-08-13T21:11:21.166Z,25.78
2018-08-13T21:13:49.435Z,25.76
2018-08-13T21:16:17.583Z,25.72
2018-08-13T21:18:46.209Z,25.71
2018-08-13T21:21:14.430Z,25.69
2018-08-13T21:23:42.532Z,25.67
2018-08-13T21:26:10.643Z,25.66
2018-08-13T21:28:38.826Z,25.64
2018-08-13T21:31:06.964Z,25.61
2018-08-13T21:33:35.040Z,25.59
2018-08-13T21:36:03.174Z,25.57
2018-08-13T21:38:31.282Z,25.57
2018-08-13T21:40:59.487Z,25.55
2018-08-13T21:43:27.863Z,25.52
2018-08-13T21:45:56.649Z,25.51
2018-08-13T21:48:24.741Z,25.49
2018-08-13T21:50:52.971Z,25.48
2018-08-13T21:53:25.357Z,25.47
2018-08-13T21:55:53.620Z,25.45
2018-08-13T21:58:21.758Z,25.45
2018-08-13T22:00:55.331Z,25.43
2018-08-13T22:03:23.467Z,25.42
2018-08-13T22:05:51.665Z,25.40
2018-08-13T22:08:19.898Z,25.40
2018-08-13T22:10:48.260Z,25.39
2018-08-13T22:13:16.372Z,25.27
2018-08-13T22:15:44.710Z,25.00
2018-08-13T22:18:13.115Z,24.83
2018-08-13T22:20:41.405Z,24.68
2018-08-13T22:23:09.715Z,24.59
2018-08-13T22:25:39.845Z,24.56
2018-08-13T22:28:09.359Z,24.54
2018-08-13T22:30:37.598Z,24.42
2018-08-13T22:33:07.184Z,24.32
2018-08-13T22:35:35.469Z,24.28
2018-08-13T22:38:03.871Z,24.23
2018-08-13T22:40:32.216Z,24.17
2018-08-13T22:43:00.439Z,24.10
2018-08-13T22:45:28.535Z,24.06
2018-08-13T22:47:56.725Z,24.07
2018-08-13T22:50:24.900Z,24.05
2018-08-13T22:52:53.055Z,23.96
2018-08-13T22:55:21.165Z,23.91
2018-08-13T22:57:49.523Z,23.88
2018-08-13T23:00:19.675Z,23.83
2018-08-13T23:02:48.567Z,23.78
2018-08-13T23:05:20.984Z,23.74
2018-08-13T23:07:49.269Z,23.74
2018-08-13T23:10:18.919Z,23.70
2018-08-13T23:12:48.082Z,23.69
2018-08-13T23:15:16.899Z,23.61
2018-08-13T23:17:45.584Z,23.62
2018-08-13T23:20:19.782Z,23.60
2018-08-13T23:23:03.435Z,23.52
2018-08-13T23:25:33.117Z,23.41
2018-08-13T23:28:02.429Z,23.43
2018-08-13T23:30:30.806Z,23.41
2018-08-13T23:32:59.787Z,23.35
2018-08-13T23:35:28.571Z,23.36
2018-08-13T23:37:57.063Z,23.36
2018-08-13T23:40:25.773Z,23.30
2018-08-13T23:42:53.909Z,23.28
2018-08-13T23:45:24.176Z,23.21
2018-08-13T23:47:52.310Z,23.14
2018-08-13T23:50:22.323Z,23.09
2018-08-13T23:52:51.618Z,23.06
2018-08-13T23:55:26.467Z,22.97
2018-08-13T23:57:55.097Z,22.90
